createdAt,value
2023-01-31T00:00:23.015Z,100264.47
2023-01-31T00:03:11.692Z,100258.97
2023-01-31T00:06:11.474Z,100254.00
2023-01-31T00:09:01.552Z,100247.47
2023-01-31T00:11:50.218Z,100248.09
2023-01-31T00:14:39.137Z,100255.28
2023-01-31T00:17:27.704Z,100258.75
2023-01-31T00:20:16.440Z,100266.31
2023-01-31T00:23:06.516Z,100274.03
2023-01-31T00:25:55.156Z,100276.97
2023-01-31T00:28:44.336Z,100268.19
2023-01-31T00:31:34.963Z,100271.25
2023-01-31T00:34:24.545Z,100270.81
2023-01-31T00:37:13.112Z,100266.31
2023-01-31T00:40:04.401Z,100267.47
2023-01-31T00:42:53.031Z,100272.44
2023-01-31T00:45:41.692Z,100280.00
2023-01-31T00:48:31.355Z,100276.19
2023-01-31T00:51:20.635Z,100288.13
2023-01-31T00:54:09.267Z,100280.25
2023-01-31T00:56:59.164Z,100297.78
2023-01-31T00:59:48.029Z,100297.50
2023-01-31T01:02:36.768Z,100302.47
2023-01-31T01:05:25.751Z,100312.09
2023-01-31T01:08:14.524Z,100318.19
2023-01-31T01:11:23.817Z,100326.19
2023-01-31T01:14:13.894Z,100318.56
2023-01-31T01:17:02.683Z,100320.84
2023-01-31T01:19:51.557Z,100334.72
2023-01-31T01:22:40.606Z,100330.41
2023-01-31T01:25:29.262Z,100349.41
2023-01-31T01:28:17.922Z,100357.78
2023-01-31T01:31:09.097Z,100358.69
2023-01-31T01:34:29.503Z,100357.66
2023-01-31T01:37:21.111Z,100362.38
2023-01-31T01:40:11.283Z,100375.94
2023-01-31T01:42:59.985Z,100366.47
2023-01-31T01:45:48.931Z,100378.59
2023-01-31T01:48:39.566Z,100371.28
2023-01-31T01:51:29.049Z,100368.44
2023-01-31T01:54:20.461Z,100379.72
2023-01-31T01:57:09.546Z,100386.69
2023-01-31T02:00:06.004Z,100396.34
2023-01-31T02:02:59.091Z,100397.34
2023-01-31T02:05:51.458Z,100397.81
2023-01-31T02:08:41.310Z,100394.69
2023-01-31T02:11:32.001Z,100392.69
2023-01-31T02:14:20.758Z,100396.34
2023-01-31T02:17:13.673Z,100393.13
2023-01-31T02:20:13.223Z,100392.31
2023-01-31T02:23:19.343Z,100398.81
2023-01-31T02:26:33.743Z,100407.44
2023-01-31T02:29:34.238Z,100411.41
2023-01-31T02:32:44.780Z,100423.38
2023-01-31T02:35:43.158Z,100434.03
2023-01-31T02:38:56.244Z,100433.63
2023-01-31T02:41:49.392Z,100439.06
2023-01-31T02:44:59.417Z,100443.56
2023-01-31T02:47:57.693Z,100437.22
2023-01-31T02:50:49.400Z,100436.97
2023-01-31T02:53:42.589Z,100445.97
2023-01-31T02:56:32.239Z,100445.84
2023-01-31T02:59:26.976Z,100466.91
2023-01-31T03:02:15.760Z,100462.03
2023-01-31T03:05:06.619Z,100469.34
2023-01-31T03:07:57.006Z,100486.19
2023-01-31T03:10:59.778Z,100496.94
2023-01-31T03:13:54.464Z,100497.47
2023-01-31T03:17:05.686Z,100509.13
2023-01-31T03:19:59.865Z,100512.47
2023-01-31T03:22:51.919Z,100527.34
2023-01-31T03:25:41.139Z,100523.78
2023-01-31T03:28:31.732Z,100532.78
2023-01-31T03:31:21.860Z,100531.84
2023-01-31T03:34:12.483Z,100525.31
2023-01-31T03:37:07.700Z,100541.13
2023-01-31T03:40:01.954Z,100543.16
2023-01-31T03:42:53.741Z,100550.13
2023-01-31T03:45:47.765Z,100544.78
2023-01-31T03:48:40.963Z,100560.03
2023-01-31T03:51:30.916Z,100557.28
2023-01-31T03:54:22.699Z,100549.75
2023-01-31T03:57:17.713Z,100554.06
2023-01-31T04:00:09.680Z,100558.03
2023-01-31T04:03:02.655Z,100551.84
2023-01-31T04:05:51.261Z,100559.13
2023-01-31T04:08:40.137Z,100551.31
2023-01-31T04:11:29.589Z,100560.03
2023-01-31T04:14:20.178Z,100556.16
2023-01-31T04:17:08.871Z,100560.88
2023-01-31T04:19:57.528Z,100559.13
2023-01-31T04:22:46.123Z,100564.28
2023-01-31T04:25:34.784Z,100563.72
2023-01-31T04:28:23.387Z,100563.72
2023-01-31T04:31:13.708Z,100565.34
2023-01-31T04:34:02.427Z,100567.28
2023-01-31T04:36:50.991Z,100566.19
2023-01-31T04:39:39.713Z,100571.91
2023-01-31T04:42:28.489Z,100578.81
2023-01-31T04:45:17.301Z,100574.91
2023-01-31T04:48:08.786Z,100581.44
2023-01-31T04:50:57.535Z,100584.56
2023-01-31T04:53:46.378Z,100587.22
2023-01-31T04:56:35.258Z,100583.53
2023-01-31T04:59:23.819Z,100583.09
2023-01-31T05:02:15.109Z,100583.53
2023-01-31T05:05:05.815Z,100584.13
2023-01-31T05:07:54.452Z,100585.50
2023-01-31T05:10:43.744Z,100585.19
2023-01-31T05:13:32.930Z,100587.81
2023-01-31T05:16:21.769Z,100587.06
2023-01-31T05:19:10.543Z,100582.34
2023-01-31T05:22:00.612Z,100582.09
2023-01-31T05:24:49.161Z,100592.28
2023-01-31T05:27:37.797Z,100606.34
2023-01-31T05:30:26.495Z,100606.06
2023-01-31T05:33:15.785Z,100608.84
2023-01-31T05:36:05.009Z,100617.16
2023-01-31T05:38:55.396Z,100605.44
2023-01-31T05:41:44.137Z,100608.19
2023-01-31T05:44:33.427Z,100613.44
2023-01-31T05:47:23.501Z,100604.78
2023-01-31T05:50:13.278Z,100611.97
2023-01-31T05:53:03.092Z,100588.69
2023-01-31T05:55:54.190Z,100597.72
2023-01-31T05:58:42.919Z,100621.06
2023-01-31T06:01:32.215Z,100620.34
2023-01-31T06:04:20.887Z,100613.91
2023-01-31T06:07:09.501Z,100620.34
2023-01-31T06:09:58.100Z,100617.28
2023-01-31T06:12:48.609Z,100616.28
2023-01-31T06:16:02.249Z,100610.31
2023-01-31T06:18:51.003Z,100622.25
2023-01-31T06:21:39.657Z,100621.44
2023-01-31T06:24:28.417Z,100619.19
2023-01-31T06:27:16.946Z,100611.84
2023-01-31T06:30:07.979Z,100622.16
2023-01-31T06:32:56.693Z,100626.19
2023-01-31T06:35:45.299Z,100627.47
2023-01-31T06:38:33.914Z,100639.78
2023-01-31T06:41:22.681Z,100639.72
2023-01-31T06:44:11.318Z,100648.50
2023-01-31T06:47:01.802Z,100635.19
2023-01-31T06:49:50.548Z,100633.16
2023-01-31T06:52:39.725Z,100628.75
2023-01-31T06:55:28.586Z,100626.00
2023-01-31T06:58:20.697Z,100629.69
2023-01-31T07:01:10.921Z,100637.97
2023-01-31T07:04:01.041Z,100642.84
2023-01-31T07:06:49.635Z,100651.00
2023-01-31T07:09:38.266Z,100644.31
2023-01-31T07:12:26.918Z,100652.31
2023-01-31T07:15:15.633Z,100657.53
2023-01-31T07:18:04.689Z,100665.53
2023-01-31T07:20:54.667Z,100667.47
2023-01-31T07:23:45.498Z,100658.06
2023-01-31T07:26:34.969Z,100662.78
2023-01-31T07:29:23.603Z,100657.81
2023-01-31T07:32:12.780Z,100656.97
2023-01-31T07:35:01.432Z,100665.97
2023-01-31T07:37:53.255Z,100662.22
2023-01-31T07:40:42.053Z,100663.50
2023-01-31T07:43:31.053Z,100658.16
2023-01-31T07:46:20.134Z,100673.50
2023-01-31T07:49:11.468Z,100670.38
2023-01-31T07:52:00.047Z,100672.06
2023-01-31T07:54:50.147Z,100663.16
2023-01-31T07:57:38.748Z,100669.19
2023-01-31T08:00:45.312Z,100656.88
2023-01-31T08:03:34.081Z,100662.22
2023-01-31T08:06:22.800Z,100661.13
2023-01-31T08:09:11.943Z,100653.50
2023-01-31T08:12:01.912Z,100656.88
2023-01-31T08:14:50.514Z,100663.41
2023-01-31T08:17:39.071Z,100668.72
2023-01-31T08:20:30.919Z,100661.50
2023-01-31T08:23:19.556Z,100659.47
2023-01-31T08:26:10.529Z,100662.78
2023-01-31T08:29:00.931Z,100672.16
2023-01-31T08:31:51.981Z,100665.06
2023-01-31T08:34:40.773Z,100666.81
2023-01-31T08:37:30.505Z,100670.13
2023-01-31T08:40:19.721Z,100663.03
2023-01-31T08:45:58.129Z,100659.00
2023-01-31T08:48:46.780Z,100660.03
2023-01-31T08:51:35.431Z,100665.91
2023-01-31T08:54:24.062Z,100661.50
2023-01-31T08:57:12.611Z,100653.59
2023-01-31T09:00:01.231Z,100651.94
2023-01-31T09:02:54.528Z,100652.56
2023-01-31T09:05:43.088Z,100647.88
2023-01-31T09:08:32.470Z,100649.91
2023-01-31T09:11:22.090Z,100651.00
2023-01-31T09:14:10.612Z,100654.31
2023-01-31T09:16:59.460Z,100646.31
2023-01-31T09:19:50.680Z,100653.03
2023-01-31T09:22:39.311Z,100642.75
2023-01-31T09:25:43.757Z,100643.66
2023-01-31T09:28:36.091Z,100637.41
2023-01-31T09:31:24.813Z,100634.13
2023-01-31T09:34:13.938Z,100636.66
2023-01-31T09:37:03.965Z,100626.38
2023-01-31T09:39:52.595Z,100637.13
2023-01-31T09:42:45.153Z,100628.88
2023-01-31T09:45:35.098Z,100633.38
2023-01-31T09:48:26.444Z,100621.44
2023-01-31T09:51:16.218Z,100614.44
2023-01-31T09:54:10.481Z,100614.06
2023-01-31T09:57:08.487Z,100598.94
2023-01-31T10:00:01.753Z,100597.06
2023-01-31T10:03:23.718Z,100610.47
2023-01-31T10:06:19.474Z,100599.34
2023-01-31T10:09:13.865Z,100605.69
2023-01-31T10:12:07.715Z,100602.50
2023-01-31T10:14:58.791Z,100586.41
2023-01-31T10:17:49.852Z,100596.16
2023-01-31T10:20:41.114Z,100581.19
2023-01-31T10:23:32.491Z,100594.06
2023-01-31T10:26:25.707Z,100590.53
2023-01-31T10:29:18.867Z,100597.88
2023-01-31T10:32:13.853Z,100583.94
2023-01-31T10:35:04.866Z,100574.53
2023-01-31T10:37:56.543Z,100573.56
2023-01-31T10:40:47.390Z,100568.41
2023-01-31T10:43:41.248Z,100564.56
2023-01-31T10:46:30.671Z,100565.84
2023-01-31T10:49:20.445Z,100550.44
2023-01-31T10:52:14.753Z,100540.94
2023-01-31T10:55:26.401Z,100545.09
2023-01-31T10:58:17.782Z,100547.84
2023-01-31T11:01:12.208Z,100530.84
2023-01-31T11:04:01.796Z,100531.09
2023-01-31T11:06:50.402Z,100533.59
2023-01-31T11:09:42.219Z,100524.81
2023-01-31T11:12:45.357Z,100526.97
2023-01-31T11:15:38.250Z,100500.34
2023-01-31T11:18:34.089Z,100501.34
2023-01-31T11:21:24.937Z,100501.97
2023-01-31T11:24:19.762Z,100494.16
2023-01-31T11:27:11.973Z,100481.16
2023-01-31T11:30:01.543Z,100462.50
2023-01-31T11:32:50.602Z,100476.63
2023-01-31T11:35:40.999Z,100456.63
2023-01-31T11:38:29.967Z,100450.28
2023-01-31T11:41:33.806Z,100449.25
2023-01-31T11:44:24.264Z,100441.34
2023-01-31T11:47:14.496Z,100438.22
2023-01-31T11:50:03.904Z,100432.91
2023-01-31T11:52:58.663Z,100435.75
2023-01-31T11:55:48.487Z,100435.09
2023-01-31T11:58:39.356Z,100427.94
2023-01-31T12:01:28.622Z,100422.63
2023-01-31T12:04:20.195Z,100405.88
2023-01-31T12:07:23.429Z,100407.78
2023-01-31T12:10:29.838Z,100390.09
2023-01-31T12:13:20.132Z,100390.28
2023-01-31T12:16:09.444Z,100394.13
2023-01-31T12:19:09.003Z,100388.88
2023-01-31T12:22:03.808Z,100376.25
2023-01-31T12:25:00.174Z,100384.63
2023-01-31T12:28:01.791Z,100385.44
2023-01-31T12:31:11.241Z,100380.50
2023-01-31T12:34:10.249Z,100361.53
2023-01-31T12:37:11.451Z,100364.25
2023-01-31T12:40:24.185Z,100360.56
2023-01-31T12:43:25.405Z,100363.47
2023-01-31T12:46:19.369Z,100369.69
2023-01-31T12:49:28.605Z,100349.78
2023-01-31T12:52:21.129Z,100334.81
2023-01-31T12:55:19.238Z,100325.78
2023-01-31T12:58:20.935Z,100327.44
2023-01-31T13:01:12.210Z,100319.66
2023-01-31T13:04:12.205Z,100311.56
2023-01-31T13:07:05.184Z,100297.94
2023-01-31T13:09:54.690Z,100289.56
2023-01-31T13:12:43.594Z,100306.56
2023-01-31T13:15:42.734Z,100301.63
2023-01-31T13:18:32.249Z,100301.63
2023-01-31T13:21:23.255Z,100297.19
2023-01-31T13:24:13.517Z,100293.09
2023-01-31T13:27:05.322Z,100287.00
2023-01-31T13:29:59.172Z,100278.50
2023-01-31T13:32:51.468Z,100259.63
2023-01-31T13:35:42.811Z,100274.25
2023-01-31T13:38:38.003Z,100259.31
2023-01-31T13:41:30.770Z,100268.56
2023-01-31T13:44:20.920Z,100252.56
2023-01-31T13:47:16.812Z,100258.31
2023-01-31T13:50:12.585Z,100249.44
2023-01-31T13:53:03.101Z,100250.06
2023-01-31T13:55:52.502Z,100246.75
2023-01-31T13:58:42.667Z,100249.59
2023-01-31T14:01:34.143Z,100261.91
2023-01-31T14:04:26.911Z,100246.19
2023-01-31T14:07:26.111Z,100249.88
2023-01-31T14:10:38.613Z,100256.56
2023-01-31T14:13:43.302Z,100252.47
2023-01-31T14:16:40.884Z,100244.31
2023-01-31T14:20:03.340Z,100235.50
2023-01-31T14:23:31.644Z,100245.13
2023-01-31T14:26:35.527Z,100227.97
2023-01-31T14:29:26.696Z,100212.81
2023-01-31T14:32:17.644Z,100223.06
2023-01-31T14:35:25.912Z,100215.66
2023-01-31T14:38:20.379Z,100220.28
2023-01-31T14:41:18.136Z,100207.69
2023-01-31T14:44:17.041Z,100213.84
2023-01-31T14:47:12.430Z,100210.16
2023-01-31T14:50:31.366Z,100216.31
2023-01-31T14:53:30.852Z,100201.66
2023-01-31T14:56:34.642Z,100205.09
2023-01-31T14:59:30.625Z,100206.53
2023-01-31T15:02:44.570Z,100192.38
2023-01-31T15:05:45.633Z,100183.66
2023-01-31T15:09:12.983Z,100195.03
2023-01-31T15:12:02.991Z,100192.97
2023-01-31T15:14:51.736Z,100182.22
2023-01-31T15:17:44.302Z,100180.16
2023-01-31T15:20:40.019Z,100189.19
2023-01-31T15:23:30.863Z,100176.13
2023-01-31T15:26:20.772Z,100170.78
2023-01-31T15:29:18.406Z,100179.47
2023-01-31T15:32:13.939Z,100171.47
2023-01-31T15:35:07.017Z,100184.00
2023-01-31T15:37:58.779Z,100168.88
2023-01-31T15:40:47.380Z,100180.50
2023-01-31T15:43:38.874Z,100183.66
2023-01-31T15:46:31.545Z,100179.75
2023-01-31T15:49:38.526Z,100179.53
2023-01-31T15:52:34.282Z,100177.91
2023-01-31T15:55:23.263Z,100190.63
2023-01-31T15:58:19.602Z,100175.41
2023-01-31T16:01:08.714Z,100190.44
2023-01-31T16:04:00.134Z,100183.25
2023-01-31T16:06:48.997Z,100197.03
2023-01-31T16:09:38.676Z,100194.38
2023-01-31T16:12:27.711Z,100195.41
2023-01-31T16:15:21.041Z,100192.16
2023-01-31T16:18:12.515Z,100183.16
2023-01-31T16:21:15.427Z,100189.72
2023-01-31T16:24:05.648Z,100193.38
2023-01-31T16:26:58.867Z,100180.47
2023-01-31T16:29:49.007Z,100172.31
2023-01-31T16:32:41.922Z,100171.31
2023-01-31T16:35:31.066Z,100184.38
2023-01-31T16:38:26.699Z,100172.56
2023-01-31T16:41:15.681Z,100178.44
2023-01-31T16:44:06.211Z,100173.34
2023-01-31T16:46:55.608Z,100163.53
2023-01-31T16:49:44.322Z,100156.97
2023-01-31T16:52:32.926Z,100171.94
2023-01-31T16:55:24.353Z,100179.06
2023-01-31T16:58:13.794Z,100181.94
2023-01-31T17:01:12.192Z,100181.50
2023-01-31T17:04:04.685Z,100183.66
2023-01-31T17:07:03.259Z,100185.50
2023-01-31T17:09:55.633Z,100170.63
2023-01-31T17:12:45.956Z,100183.75
2023-01-31T17:15:34.805Z,100185.81
2023-01-31T17:18:23.537Z,100187.94
2023-01-31T17:21:13.842Z,100181.16
2023-01-31T17:24:03.730Z,100190.47
2023-01-31T17:26:53.993Z,100194.97
2023-01-31T17:29:45.679Z,100180.22
2023-01-31T17:32:34.358Z,100173.22
2023-01-31T17:35:26.522Z,100171.19
2023-01-31T17:38:15.148Z,100187.19
2023-01-31T17:41:04.238Z,100181.44
2023-01-31T17:43:53.028Z,100177.31
2023-01-31T17:46:43.389Z,100159.66
2023-01-31T17:49:32.077Z,100162.13
2023-01-31T17:52:20.723Z,100178.16
2023-01-31T17:55:10.136Z,100173.84
2023-01-31T17:57:58.734Z,100166.25
2023-01-31T18:00:47.782Z,100161.06
2023-01-31T18:03:38.068Z,100155.13
2023-01-31T18:06:26.656Z,100146.50
2023-01-31T18:09:18.549Z,100169.94
2023-01-31T18:12:07.619Z,100158.81
2023-01-31T18:14:56.208Z,100170.16
2023-01-31T18:17:44.825Z,100156.38
2023-01-31T18:20:34.788Z,100140.75
2023-01-31T18:23:23.386Z,100139.69
2023-01-31T18:26:13.313Z,100144.44
2023-01-31T18:29:02.026Z,100161.31
2023-01-31T18:31:52.704Z,100158.63
2023-01-31T18:34:41.539Z,100140.97
2023-01-31T18:37:31.785Z,100137.03
2023-01-31T18:40:20.435Z,100126.56
2023-01-31T18:43:09.707Z,100135.41
2023-01-31T18:45:58.259Z,100132.94
2023-01-31T18:48:47.019Z,100118.94
2023-01-31T18:51:35.778Z,100126.34
2023-01-31T18:54:26.284Z,100121.84
2023-01-31T18:57:14.904Z,100124.94
2023-01-31T19:00:03.832Z,100123.25
2023-01-31T19:02:52.915Z,100124.28
2023-01-31T19:05:41.502Z,100130.88
2023-01-31T19:08:30.169Z,100113.59
2023-01-31T19:11:22.393Z,100121.41
2023-01-31T19:14:13.965Z,100114.03
2023-01-31T19:17:02.573Z,100108.47
2023-01-31T19:19:51.438Z,100115.06
2023-01-31T19:22:40.077Z,100109.50
2023-01-31T19:25:28.749Z,100099.63
2023-01-31T19:28:22.750Z,100102.09
2023-01-31T19:31:13.406Z,100105.41
2023-01-31T19:34:03.882Z,100114.44
2023-01-31T19:36:52.562Z,100107.88
2023-01-31T19:39:41.233Z,100106.06
2023-01-31T19:42:30.417Z,100097.63
2023-01-31T19:45:24.512Z,100093.13
2023-01-31T19:48:13.246Z,100084.88
2023-01-31T19:51:07.963Z,100087.38
2023-01-31T19:53:59.039Z,100097.84
2023-01-31T19:56:47.701Z,100100.06
2023-01-31T19:59:36.313Z,100102.72
2023-01-31T20:02:26.590Z,100115.47
2023-01-31T20:05:15.229Z,100111.16
2023-01-31T20:08:03.985Z,100124.91
2023-01-31T20:10:55.560Z,100121.44
2023-01-31T20:13:44.262Z,100112.38
2023-01-31T20:16:32.980Z,100106.59
2023-01-31T20:19:23.502Z,100126.75
2023-01-31T20:22:12.186Z,100134.97
2023-01-31T20:25:01.037Z,100119.16
2023-01-31T20:27:50.426Z,100120.38
2023-01-31T20:30:39.066Z,100122.44
2023-01-31T20:33:27.781Z,100130.88
2023-01-31T20:36:18.835Z,100114.84
2023-01-31T20:39:07.442Z,100114.84
2023-01-31T20:41:56.949Z,100099.00
2023-01-31T20:44:45.594Z,100094.06
2023-01-31T20:47:34.218Z,100107.06
2023-01-31T20:50:23.354Z,100111.56
2023-01-31T20:53:19.380Z,100104.78
2023-01-31T20:56:09.759Z,100095.94
2023-01-31T20:58:58.365Z,100091.41
2023-01-31T21:01:47.743Z,100086.88
2023-01-31T21:04:36.352Z,100096.78
2023-01-31T21:07:24.953Z,100111.16
2023-01-31T21:10:15.150Z,100117.53
2023-01-31T21:13:03.810Z,100122.25
2023-01-31T21:15:53.134Z,100136.22
2023-01-31T21:18:44.110Z,100132.09
2023-01-31T21:21:33.356Z,100121.84
2023-01-31T21:24:21.943Z,100129.22
2023-01-31T21:27:12.389Z,100139.31
2023-01-31T21:30:01.098Z,100151.78
2023-01-31T21:32:49.653Z,100139.25
2023-01-31T21:35:38.273Z,100164.63
2023-01-31T21:38:27.108Z,100160.91
2023-01-31T21:41:34.371Z,100164.72
2023-01-31T21:44:24.491Z,100153.97
2023-01-31T21:47:13.914Z,100161.28
2023-01-31T21:50:02.511Z,100160.47
2023-01-31T21:52:51.130Z,100160.34
2023-01-31T21:55:39.763Z,100160.34
2023-01-31T21:58:33.216Z,100152.13
2023-01-31T22:01:25.184Z,100154.72
2023-01-31T22:04:14.471Z,100145.63
2023-01-31T22:07:03.205Z,100147.88
2023-01-31T22:09:51.899Z,100146.03
2023-01-31T22:12:40.627Z,100142.72
2023-01-31T22:15:31.485Z,100145.22
2023-01-31T22:18:21.409Z,100139.44
2023-01-31T22:21:12.589Z,100145.66
2023-01-31T22:24:02.662Z,100135.38
2023-01-31T22:26:51.764Z,100120.97
2023-01-31T22:29:41.469Z,100132.59
2023-01-31T22:32:30.750Z,100123.38
2023-01-31T22:35:21.553Z,100120.72
2023-01-31T22:38:10.916Z,100119.28
2023-01-31T22:41:01.016Z,100122.72
2023-01-31T22:43:50.836Z,100121.94
2023-01-31T22:46:39.576Z,100113.56
2023-01-31T22:49:28.236Z,100126.91
2023-01-31T22:52:18.380Z,100136.44
2023-01-31T22:55:07.616Z,100141.38
2023-01-31T22:57:58.228Z,100128.31
2023-01-31T23:00:47.373Z,100134.88
2023-01-31T23:03:36.168Z,100132.75
2023-01-31T23:06:25.078Z,100137.19
2023-01-31T23:09:15.083Z,100139.88
2023-01-31T23:12:03.618Z,100144.16
2023-01-31T23:14:52.239Z,100143.81
2023-01-31T23:17:41.447Z,100138.59
2023-01-31T23:20:30.354Z,100151.88
2023-01-31T23:23:18.987Z,100154.47
2023-01-31T23:26:12.066Z,100146.25
2023-01-31T23:29:00.640Z,100151.69
2023-01-31T23:31:49.288Z,100157.25
2023-01-31T23:34:38.157Z,100149.88
2023-01-31T23:37:26.999Z,100163.94
2023-01-31T23:40:15.644Z,100160.66
2023-01-31T23:43:05.628Z,100163.19
2023-01-31T23:45:54.368Z,100159.50
2023-01-31T23:48:43.321Z,100159.06
2023-01-31T23:51:33.647Z,100165.63
2023-01-31T23:54:22.208Z,100162.78
2023-01-31T23:57:11.199Z,100170.31
